Time;durP1;ratioP1;P1;durP2;ratioP2;P2;SDS_P1;SDS_P2;PMS_P1;PMS_P2;Temp;Humidity;BMP_temperature;BMP_pressure;BME280_temperature;BME280_humidity;BME280_pressure;Samples;Min_cycle;Max_cycle;Signal;HPM_P1;HPM_P2
2022/04/28 00:02:08;;;;;;;88.80;10.68;;;;;;;7.76;100.00;98853.41;5000708;28;20538;-57
2022/04/28 00:04:33;;;;;;;79.03;8.88;;;;;;;8.04;100.00;98863.34;5002120;28;20505;-55
2022/04/28 00:06:58;;;;;;;90.35;9.70;;;;;;;7.62;100.00;98869.19;5003608;28;20163;-57
2022/04/28 00:09:24;;;;;;;89.22;10.45;;;;;;;7.56;100.00;98873.63;5006513;28;20128;-57
2022/04/28 00:11:51;;;;;;;89.30;10.13;;;;;;;7.53;100.00;98869.31;5003099;28;20073;-57
2022/04/28 00:14:16;;;;;;;71.63;9.30;;;;;;;7.60;100.00;98865.75;5007360;28;20085;-56
2022/04/28 00:16:42;;;;;;;76.57;8.85;;;;;;;7.90;100.00;98864.44;5002712;28;20539;-56
2022/04/28 00:19:07;;;;;;;87.60;10.35;;;;;;;8.00;100.00;98864.28;5004622;28;20029;-56
2022/04/28 00:21:33;;;;;;;80.05;10.52;;;;;;;7.05;100.00;98867.38;5003245;28;21014;-56
2022/04/28 00:23:59;;;;;;;100.32;10.70;;;;;;;7.16;100.00;98871.59;5005895;28;20082;-57
2022/04/28 00:26:24;;;;;;;81.35;10.50;;;;;;;7.48;100.00;98868.53;5004059;28;20034;-57
2022/04/28 00:28:50;;;;;;;72.18;8.73;;;;;;;7.86;100.00;98867.94;5004153;28;20042;-57
2022/04/28 00:31:15;;;;;;;88.00;9.60;;;;;;;7.65;100.00;98863.09;5001377;28;20042;-56
2022/04/28 00:33:41;;;;;;;75.90;9.65;;;;;;;7.55;100.00;98857.16;5004058;28;20068;-56
2022/04/28 00:36:07;;;;;;;89.88;9.65;;;;;;;7.61;100.00;98864.00;5003774;28;20046;-56
2022/04/28 00:38:32;;;;;;;84.00;10.57;;;;;;;7.32;100.00;98865.31;5005451;28;20041;-56
2022/04/28 00:40:58;;;;;;;65.20;8.68;;;;;;;7.50;100.00;98862.44;5003343;28;20057;-56
2022/04/28 00:43:28;;;;;;;72.18;9.10;;;;;;;7.39;100.00;98872.13;5004797;28;20040;-56
2022/04/28 00:45:54;;;;;;;70.55;9.05;;;;;;;7.43;100.00;98867.75;5005175;28;20041;-55
2022/04/28 00:51:06;;;;;;;84.55;10.13;;;;;;;7.33;100.00;98862.69;5003257;28;20447;-57
2022/04/28 00:53:35;;;;;;;71.72;8.73;;;;;;;7.26;100.00;98866.25;5003618;28;20115;-55
2022/04/28 00:56:01;;;;;;;69.75;8.88;;;;;;;7.67;100.00;98867.38;5003986;28;20025;-56
2022/04/28 00:58:27;;;;;;;76.68;10.05;;;;;;;7.11;100.00;98867.31;5000726;28;20520;-55
2022/04/28 01:00:53;;;;;;;75.22;10.02;;;;;;;7.40;100.00;98871.22;5002446;28;20045;-55
2022/04/28 01:03:20;;;;;;;69.95;9.77;;;;;;;7.39;100.00;98869.53;5004332;28;20021;-55
2022/04/28 01:05:46;;;;;;;46.45;8.07;;;;;;;7.11;100.00;98877.69;5004219;28;20091;-56
2022/04/28 01:08:11;;;;;;;59.47;8.65;;;;;;;7.31;100.00;98863.56;5007575;28;20029;-57
2022/04/28 01:10:36;;;;;;;81.85;9.00;;;;;;;7.42;100.00;98871.22;5001780;28;20103;-56
2022/04/28 01:13:03;;;;;;;67.43;8.88;;;;;;;6.96;100.00;98864.91;5005282;28;20061;-57
2022/04/28 01:15:28;;;;;;;70.05;9.32;;;;;;;7.05;100.00;98872.56;5001391;28;20159;-60
2022/04/28 01:17:54;;;;;;;59.95;7.70;;;;;;;6.98;100.00;98870.94;5005639;28;20527;-56
2022/04/28 01:20:19;;;;;;;80.43;9.52;;;;;;;6.92;100.00;98871.00;5003364;28;20036;-55
2022/04/28 01:22:45;;;;;;;82.30;9.77;;;;;;;7.06;100.00;98857.88;5004419;28;20026;-55
2022/04/28 01:25:11;;;;;;;64.40;9.43;;;;;;;6.30;100.00;98861.31;5001077;28;20397;-55
2022/04/28 01:27:37;;;;;;;76.70;9.65;;;;;;;6.83;100.00;98871.13;5009888;28;20030;-57
2022/04/28 01:30:14;;;;;;;66.97;9.52;;;;;;;6.47;100.00;98860.28;5005072;28;20540;-57
2022/04/28 01:32:40;;;;;;;87.88;9.90;;;;;;;6.71;100.00;98867.81;5002931;28;20060;-56
2022/04/28 01:35:06;;;;;;;69.35;9.35;;;;;;;7.10;100.00;98865.59;5001969;28;20030;-55
2022/04/28 01:37:31;;;;;;;76.20;9.55;;;;;;;6.92;100.00;98871.00;5003567;28;20044;-57
2022/04/28 01:39:56;;;;;;;73.25;9.45;;;;;;;6.84;100.00;98868.53;5002341;28;20440;-57
2022/04/28 01:42:23;;;;;;;69.60;8.55;;;;;;;7.25;100.00;98871.47;5003730;28;20103;-56
2022/04/28 01:44:49;;;;;;;107.25;10.10;;;;;;;7.12;100.00;98874.22;5003097;28;20088;-57
2022/04/28 01:47:15;;;;;;;64.32;8.02;;;;;;;7.04;100.00;98872.59;5001332;28;20038;-56
2022/04/28 01:49:41;;;;;;;68.35;8.73;;;;;;;6.81;100.00;98872.88;5002153;28;20026;-55
2022/04/28 01:54:59;;;;;;;90.60;9.45;;;;;;;7.13;100.00;98881.13;5002728;28;20041;-55
2022/04/28 01:57:27;;;;;;;74.90;9.80;;;;;;;6.17;100.00;98875.25;5002615;28;20693;-55
2022/04/28 01:59:53;;;;;;;78.03;9.50;;;;;;;6.01;100.00;98874.56;5002826;28;20117;-56
2022/04/28 02:02:19;;;;;;;69.35;9.35;;;;;;;5.87;100.00;98866.88;5004025;28;20051;-55
2022/04/28 02:04:45;;;;;;;96.68;11.02;;;;;;;5.89;100.00;98870.28;5004190;28;20032;-56
2022/04/28 02:07:13;;;;;;;83.45;8.98;;;;;;;6.03;100.00;98869.34;5002777;28;20061;-55
2022/04/28 02:09:41;;;;;;;60.75;10.43;;;;;;;5.71;100.00;98855.75;5003893;28;20749;-57
2022/04/28 02:12:08;;;;;;;89.25;10.20;;;;;;;6.11;100.00;98860.63;5000914;28;20045;-56
2022/04/28 02:14:33;;;;;;;70.32;9.27;;;;;;;6.12;100.00;98857.19;5001852;28;20113;-56
2022/04/28 02:16:58;;;;;;;79.72;9.80;;;;;;;5.81;100.00;98864.34;5003613;28;20129;-57
2022/04/28 02:19:24;;;;;;;69.72;9.55;;;;;;;5.76;100.00;98871.28;5004362;28;20024;-55
2022/04/28 02:21:49;;;;;;;85.53;10.93;;;;;;;5.92;100.00;98865.09;5001390;28;20463;-56
2022/04/28 02:24:15;;;;;;;85.03;9.32;;;;;;;5.74;100.00;98867.84;5002875;28;20031;-57
2022/04/28 02:26:40;;;;;;;78.65;10.40;;;;;;;5.38;100.00;98862.03;5001481;28;20066;-55
2022/04/28 02:29:06;;;;;;;79.43;10.05;;;;;;;5.63;100.00;98869.66;5001481;28;20057;-56
2022/04/28 02:31:31;;;;;;;71.15;10.05;;;;;;;5.22;100.00;98872.47;5000663;28;20048;-56
2022/04/28 02:33:56;;;;;;;63.25;8.65;;;;;;;5.55;100.00;98870.56;5001779;28;20029;-57
2022/04/28 02:36:23;;;;;;;82.32;10.82;;;;;;;5.63;100.00;98872.25;5003657;28;20063;-56
2022/04/28 02:38:49;;;;;;;75.45;9.65;;;;;;;5.68;100.00;98875.63;5002870;28;20882;-57
2022/04/28 02:41:20;;;;;;;66.55;8.85;;;;;;;5.18;100.00;98865.63;5003423;28;20041;-55
2022/04/28 02:43:45;;;;;;;72.55;10.02;;;;;;;5.21;100.00;98870.75;5002072;28;20687;-58
2022/04/28 02:46:11;;;;;;;67.22;8.07;;;;;;;5.93;100.00;98879.75;5001960;28;20042;-56
2022/04/28 02:48:36;;;;;;;84.93;8.77;;;;;;;6.79;100.00;98879.81;5000463;28;20030;-56
2022/04/28 02:51:01;;;;;;;77.10;8.27;;;;;;;7.03;100.00;98874.31;5003179;28;20073;-55
2022/04/28 02:53:27;;;;;;;70.40;8.32;;;;;;;6.50;100.00;98868.03;5002670;28;20040;-54
2022/04/28 02:55:52;;;;;;;78.30;9.02;;;;;;;6.04;100.00;98871.06;5001819;28;20131;-56
2022/04/28 02:58:17;;;;;;;79.22;10.07;;;;;;;5.74;100.00;98865.25;5000314;28;20223;-56
2022/04/28 03:00:43;;;;;;;78.72;9.32;;;;;;;5.81;100.00;98872.09;5001246;28;20038;-55
2022/04/28 03:03:09;;;;;;;74.78;9.05;;;;;;;5.28;100.00;98870.75;5001390;28;20032;-56
2022/04/28 03:10:46;;;;;;;75.65;8.90;;;;;;;5.28;100.00;98871.59;5000351;28;20544;-56
2022/04/28 03:11:05;;;;;;;70.80;8.88;;;;;;;5.20;100.00;98873.34;4998788;28;20110;-55
2022/04/28 03:13:32;;;;;;;81.63;9.98;;;;;;;4.90;100.00;98874.38;5001062;28;20038;-54
2022/04/28 03:15:57;;;;;;;71.63;7.82;;;;;;;5.30;100.00;98875.03;5001096;28;20045;-56
2022/04/28 03:18:22;;;;;;;66.03;8.00;;;;;;;5.63;100.00;98882.59;5002290;28;20030;-56
2022/04/28 03:20:48;;;;;;;71.30;8.23;;;;;;;5.76;100.00;98881.63;5003267;28;20584;-56
2022/04/28 03:23:14;;;;;;;57.67;7.38;;;;;;;5.56;100.00;98892.97;5001650;28;20038;-56
2022/04/28 03:25:39;;;;;;;70.63;8.55;;;;;;;5.40;100.00;98886.16;5001418;28;20079;-55
2022/04/28 03:28:05;;;;;;;67.25;8.30;;;;;;;5.28;100.00;98884.53;4998799;28;20034;-55
2022/04/28 03:30:31;;;;;;;63.08;7.88;;;;;;;5.74;100.00;98897.16;4998510;28;20119;-54
2022/04/28 03:32:56;;;;;;;89.10;9.00;;;;;;;5.50;100.00;98885.25;4997642;28;20525;-56
2022/04/28 03:35:21;;;;;;;80.80;8.80;;;;;;;4.98;100.00;98888.09;4999026;28;20123;-56
2022/04/28 03:37:47;;;;;;;77.90;8.98;;;;;;;4.67;100.00;98897.69;5003283;28;20447;-56
2022/04/28 03:40:13;;;;;;;72.07;9.45;;;;;;;4.66;100.00;98896.84;5003964;28;20307;-56
2022/04/28 03:42:38;;;;;;;67.28;9.05;;;;;;;4.47;100.00;98895.16;5006570;28;20051;-56
2022/04/28 03:45:04;;;;;;;86.38;9.75;;;;;;;4.43;100.00;98902.06;5009420;28;20057;-56
2022/04/28 03:47:33;;;;;;;74.85;8.70;;;;;;;4.92;100.00;98893.31;5006341;28;20041;-57
2022/04/28 03:49:58;;;;;;;73.43;7.60;;;;;;;5.35;100.00;98906.06;5009585;28;20117;-55
2022/04/28 03:52:24;;;;;;;58.90;6.97;;;;;;;5.53;100.00;98908.53;5006415;28;20153;-55
2022/04/28 03:54:49;;;;;;;101.50;9.65;;;;;;;5.35;100.00;98900.88;5006312;28;20491;-56
2022/04/28 03:57:14;;;;;;;83.53;9.20;;;;;;;4.75;100.00;98907.16;5004368;28;20119;-56
2022/04/28 03:59:40;;;;;;;65.78;8.60;;;;;;;5.16;100.00;98913.03;5007325;28;20449;-55
2022/04/28 04:02:05;;;;;;;79.57;9.13;;;;;;;4.89;100.00;98920.03;5005158;28;20041;-56
2022/04/28 04:04:30;;;;;;;76.00;8.75;;;;;;;4.56;100.00;98915.84;5005096;28;20061;-56
2022/04/28 04:06:56;;;;;;;90.20;9.57;;;;;;;4.42;100.00;98921.84;5003986;28;20030;-55
2022/04/28 04:09:21;;;;;;;98.95;9.60;;;;;;;4.22;100.00;98919.28;5005068;28;20711;-60
2022/04/28 04:11:46;;;;;;;59.03;8.40;;;;;;;4.25;100.00;98928.78;5003806;28;20076;-54
2022/04/28 04:14:12;;;;;;;83.53;8.65;;;;;;;4.52;100.00;98929.59;5005319;28;20037;-54
2022/04/28 04:16:37;;;;;;;80.20;8.77;;;;;;;4.23;100.00;98923.63;5006419;28;20050;-55
2022/04/28 04:19:03;;;;;;;66.10;8.13;;;;;;;4.78;100.00;98927.81;5005414;28;20416;-55
2022/04/28 04:21:28;;;;;;;126.30;11.13;;;;;;;4.54;100.00;98928.75;5003388;28;20046;-55
2022/04/28 04:23:54;;;;;;;73.55;8.63;;;;;;;4.32;100.00;98927.03;5005535;28;20033;-55
2022/04/28 04:26:19;;;;;;;82.90;9.27;;;;;;;4.26;100.00;98935.66;5001131;28;20038;-55
2022/04/28 04:28:44;;;;;;;72.93;8.85;;;;;;;4.00;100.00;98931.34;5005059;28;20048;-55
2022/04/28 04:33:53;;;;;;;88.60;9.75;;;;;;;4.41;100.00;98935.66;5004764;28;20188;-55
2022/04/28 04:36:19;;;;;;;83.30;9.48;;;;;;;4.21;100.00;98934.81;5002850;28;20544;-56
2022/04/28 04:38:44;;;;;;;77.43;9.45;;;;;;;4.41;100.00;98934.78;5006388;28;20457;-56
2022/04/28 04:41:11;;;;;;;62.67;8.60;;;;;;;4.52;100.00;98939.94;5004730;28;20038;-55
2022/04/28 04:43:39;;;;;;;94.30;9.88;;;;;;;4.58;100.00;98950.28;5002188;28;20025;-55
2022/04/28 04:46:04;;;;;;;75.53;9.15;;;;;;;4.43;100.00;98952.00;5004784;28;20042;-55
2022/04/28 04:48:31;;;;;;;78.57;9.18;;;;;;;4.87;100.00;98942.47;5003986;28;20026;-55
2022/04/28 04:50:57;;;;;;;71.72;9.40;;;;;;;5.96;100.00;98947.09;5004430;28;20088;-56
2022/04/28 04:53:23;;;;;;;80.45;10.18;;;;;;;5.63;100.00;98940.38;5003753;28;20735;-54
2022/04/28 04:55:48;;;;;;;88.07;10.18;;;;;;;5.65;100.00;98948.16;5004458;28;20412;-56
2022/04/28 04:58:14;;;;;;;70.30;10.25;;;;;;;6.80;100.00;98954.13;5007308;28;20034;-55
2022/04/28 05:00:40;;;;;;;69.85;10.43;;;;;;;8.86;100.00;98956.38;5005885;28;20726;-55
2022/04/28 05:03:05;;;;;;;74.45;10.20;;;;;;;8.60;100.00;98955.13;5005883;28;20025;-55
2022/04/28 05:05:30;;;;;;;60.47;9.40;;;;;;;7.88;100.00;98953.63;5002142;28;20734;-55
2022/04/28 05:07:55;;;;;;;85.32;10.30;;;;;;;7.39;100.00;98943.94;5004377;28;20463;-57
2022/04/28 05:10:21;;;;;;;114.18;11.95;;;;;;;7.39;100.00;98946.53;4999593;28;20212;-55
2022/04/28 05:12:46;;;;;;;97.32;11.57;;;;;;;8.53;100.00;98952.63;5002408;28;20092;-57
2022/04/28 05:15:12;;;;;;;75.28;9.93;;;;;;;8.19;100.00;98943.63;5005046;28;20034;-57
2022/04/28 05:17:38;;;;;;;72.47;9.73;;;;;;;9.05;100.00;98942.13;5007570;28;20021;-56
2022/04/28 05:20:06;;;;;;;85.32;10.55;;;;;;;9.56;100.00;98943.69;5003306;28;20685;-57
2022/04/28 05:22:31;;;;;;;68.18;9.38;;;;;;;10.79;100.00;98945.94;4992144;28;20427;-55
2022/04/28 05:24:56;;;;;;;105.65;11.40;;;;;;;10.33;100.00;98941.03;5003341;28;20040;-57
2022/04/28 05:27:22;;;;;;;68.93;9.15;;;;;;;11.23;100.00;98945.63;5003283;28;20048;-56
2022/04/28 05:29:47;;;;;;;60.90;7.93;;;;;;;12.95;100.00;98943.66;5003481;28;20108;-57
2022/04/28 05:32:12;;;;;;;83.28;8.73;;;;;;;13.60;100.00;98953.53;5004132;28;20041;-55
2022/04/28 05:34:38;;;;;;;72.07;8.45;;;;;;;14.24;100.00;98949.25;5004135;28;20156;-56
2022/04/28 05:37:04;;;;;;;73.00;8.30;;;;;;;14.77;100.00;98946.19;5005211;28;20084;-58
2022/04/28 05:39:30;;;;;;;58.83;7.57;;;;;;;16.87;95.12;98944.28;5006229;28;20018;-57
2022/04/28 05:41:56;;;;;;;56.35;7.28;;;;;;;16.71;88.66;98960.84;5001470;28;20042;-57
2022/04/28 05:47:07;;;;;;;61.60;7.82;;;;;;;17.09;85.49;98958.06;5005987;28;20541;-56
2022/04/28 05:49:33;;;;;;;71.78;7.82;;;;;;;18.07;74.97;98953.69;5005048;28;20148;-57
2022/04/28 05:51:58;;;;;;;61.20;7.43;;;;;;;18.46;70.34;98954.97;5002902;28;20052;-56
2022/04/28 05:54:24;;;;;;;73.22;8.77;;;;;;;19.15;66.28;98956.19;5002671;28;20029;-58
2022/04/28 05:56:50;;;;;;;54.33;7.40;;;;;;;18.56;65.69;98960.56;5002357;28;20041;-58
2022/04/28 05:59:16;;;;;;;66.03;7.90;;;;;;;20.63;59.93;98954.75;5000881;28;20061;-57
2022/04/28 06:01:42;;;;;;;56.33;8.07;;;;;;;20.59;58.08;98962.00;5003334;28;20042;-57
2022/04/28 06:04:08;;;;;;;52.85;7.47;;;;;;;21.53;53.54;98958.28;5004106;28;20025;-57
2022/04/28 06:06:33;;;;;;;67.20;8.23;;;;;;;21.37;53.60;98949.66;5004169;28;20041;-58
2022/04/28 06:08:59;;;;;;;47.15;7.13;;;;;;;21.45;53.25;98951.81;5004661;28;20030;-57
2022/04/28 06:11:24;;;;;;;66.45;7.90;;;;;;;22.80;49.79;98959.69;5003172;28;20062;-58
2022/04/28 06:13:49;;;;;;;62.70;7.70;;;;;;;22.44;52.04;98951.72;5005499;28;20125;-57
2022/04/28 06:16:15;;;;;;;57.30;7.55;;;;;;;22.29;52.43;98958.16;5002969;28;20052;-57
2022/04/28 06:18:40;;;;;;;65.82;8.25;;;;;;;22.74;49.15;98955.69;5002482;28;20557;-58
2022/04/28 06:21:06;;;;;;;49.35;7.30;;;;;;;22.63;49.41;98958.31;5001693;28;20038;-57
2022/04/28 06:23:31;;;;;;;62.00;7.63;;;;;;;22.82;49.88;98955.94;5005411;28;20120;-57
2022/04/28 06:25:56;;;;;;;55.17;7.43;;;;;;;24.04;46.02;98955.28;5002632;28;20550;-57
2022/04/28 06:28:22;;;;;;;64.95;8.27;;;;;;;23.90;45.28;98958.22;5003419;28;20036;-58
2022/04/28 06:30:47;;;;;;;53.15;7.45;;;;;;;23.06;48.80;98965.69;5003405;28;20318;-57
2022/04/28 06:33:12;;;;;;;55.95;8.05;;;;;;;22.04;48.39;98967.94;5001288;28;20085;-59
2022/04/28 06:35:38;;;;;;;61.47;8.23;;;;;;;24.74;45.27;98966.44;5002726;28;20038;-57
2022/04/28 06:38:04;;;;;;;48.47;7.25;;;;;;;25.18;43.75;98960.91;5004012;28;20641;-58
2022/04/28 06:40:30;;;;;;;56.75;7.85;;;;;;;26.48;41.24;98961.06;4998424;28;20064;-58
2022/04/28 06:42:55;;;;;;;71.07;8.73;;;;;;;25.23;41.37;98973.88;5000259;28;20030;-58
2022/04/28 06:45:21;;;;;;;53.03;7.32;;;;;;;22.84;45.26;98967.31;5000837;28;20092;-57
2022/04/28 06:47:47;;;;;;;63.20;8.50;;;;;;;24.18;44.55;98966.63;4999159;28;20030;-59
2022/04/28 06:50:12;;;;;;;58.33;8.05;;;;;;;24.91;43.73;98966.81;5002186;28;20839;-58
2022/04/28 06:52:38;;;;;;;64.18;8.27;;;;;;;27.38;40.36;98970.53;5004546;28;20021;-58
2022/04/28 06:55:05;;;;;;;69.13;8.45;;;;;;;24.30;43.18;98970.97;5006321;28;20500;-58
2022/04/28 06:57:31;;;;;;;56.10;8.02;;;;;;;25.14;43.65;98965.69;5002052;28;20046;-58
2022/04/28 06:59:56;;;;;;;61.58;8.30;;;;;;;26.46;39.35;98968.38;5001733;28;20026;-58
2022/04/28 07:02:21;;;;;;;59.13;8.27;;;;;;;24.41;41.47;98973.56;5003835;28;20042;-58
2022/04/28 07:04:47;;;;;;;70.70;9.02;;;;;;;23.19;44.37;98968.25;5000279;28;20079;-58
2022/04/28 07:07:14;;;;;;;56.83;8.05;;;;;;;26.47;41.20;98968.25;5002658;28;20051;-57
2022/04/28 07:09:39;;;;;;;54.47;8.20;;;;;;;27.62;38.82;98969.16;5000982;28;20096;-58
2022/04/28 07:12:05;;;;;;;67.43;8.65;;;;;;;26.81;39.50;98966.97;5000694;28;20038;-57
2022/04/28 07:14:30;;;;;;;58.42;7.82;;;;;;;26.59;39.94;98971.59;5002388;28;20030;-57
2022/04/28 07:16:56;;;;;;;53.60;7.75;;;;;;;25.36;40.00;98966.53;5001490;28;20075;-58
2022/04/28 07:19:21;;;;;;;65.95;8.18;;;;;;;26.79;37.71;98966.28;5001277;28;20048;-59
2022/04/28 07:21:46;;;;;;;53.65;7.47;;;;;;;27.95;35.97;98974.97;5003228;28;20099;-58
2022/04/28 07:24:12;;;;;;;54.53;7.47;;;;;;;28.96;35.46;98978.25;5002961;28;20048;-57
2022/04/28 07:26:37;;;;;;;54.92;7.88;;;;;;;22.01;45.02;98976.09;5001603;28;20118;-57
2022/04/28 07:29:05;;;;;;;58.60;8.07;;;;;;;27.98;37.63;98978.19;5003154;28;20026;-57
2022/04/28 07:31:30;;;;;;;54.55;7.22;;;;;;;29.23;34.78;98978.34;5000946;28;20364;-58
2022/04/28 07:33:56;;;;;;;48.05;7.28;;;;;;;28.12;36.25;98979.50;5001316;28;20121;-59
2022/04/28 07:36:21;;;;;;;60.15;7.57;;;;;;;29.07;34.18;98979.03;5000089;28;20465;-57
2022/04/28 07:38:46;;;;;;;46.05;7.15;;;;;;;28.92;33.68;98982.28;5000880;28;20058;-57
2022/04/28 07:41:13;;;;;;;39.70;6.33;;;;;;;28.12;34.15;98973.28;5000615;28;20125;-58
2022/04/28 07:43:38;;;;;;;55.28;7.63;;;;;;;27.86;34.04;98977.53;5000892;28;20307;-57
2022/04/28 07:46:03;;;;;;;42.58;6.68;;;;;;;28.80;33.82;98983.50;4999592;28;20438;-57
2022/04/28 07:48:29;;;;;;;56.78;7.78;;;;;;;28.95;33.17;98981.97;5000457;28;20140;-58
2022/04/28 07:50:54;;;;;;;46.58;6.97;;;;;;;28.09;34.20;98987.84;5000411;28;20408;-57
2022/04/28 07:53:21;;;;;;;50.53;6.63;;;;;;;29.47;33.26;98983.00;5001909;28;20080;-57
2022/04/28 07:56:10;;;;;;;57.58;7.35;;;;;;;29.99;31.56;98983.72;5001892;28;20044;-57
2022/04/28 07:58:32;;;;;;;55.70;7.40;;;;;;;30.28;31.08;98984.31;5000709;28;20376;-57
2022/04/28 08:00:58;;;;;;;51.05;6.90;;;;;;;30.91;30.78;98970.25;5001852;28;20526;-57
2022/04/28 08:03:24;;;;;;;51.88;6.88;;;;;;;30.02;31.28;98979.88;5002206;28;20047;-59
2022/04/28 08:05:49;;;;;;;51.83;6.77;;;;;;;30.65;30.08;98985.72;5002156;28;20515;-57
2022/04/28 08:08:14;;;;;;;46.90;6.60;;;;;;;29.96;30.96;98986.75;5001267;28;20280;-57
2022/04/28 08:10:40;;;;;;;61.92;7.53;;;;;;;28.96;30.79;98980.13;5000555;28;20042;-57
2022/04/28 08:13:05;;;;;;;45.65;6.93;;;;;;;26.93;32.18;98979.22;5002249;28;20502;-57
2022/04/28 08:15:30;;;;;;;54.20;7.20;;;;;;;25.88;35.11;98980.66;4999155;28;20058;-56
2022/04/28 08:17:56;;;;;;;49.85;7.00;;;;;;;26.06;35.02;98977.34;5000741;28;20036;-57
2022/04/28 08:20:21;;;;;;;52.13;7.35;;;;;;;29.32;30.92;98986.28;5001373;28;20122;-57
2022/04/28 08:22:46;;;;;;;61.13;7.40;;;;;;;28.84;31.95;98979.53;5000487;28;20034;-58
2022/04/28 08:25:12;;;;;;;47.80;6.43;;;;;;;29.17;29.03;98986.00;5000090;28;20238;-56
2022/04/28 08:27:38;;;;;;;47.70;6.28;;;;;;;30.82;27.31;98981.19;5005367;28;20153;-57
2022/04/28 08:30:04;;;;;;;49.55;6.43;;;;;;;29.93;28.03;98984.38;5005937;28;20404;-58
2022/04/28 08:32:30;;;;;;;44.45;5.90;;;;;;;29.67;27.86;98978.22;5005788;28;20189;-57
2022/04/28 08:34:55;;;;;;;82.68;8.02;;;;;;;29.33;26.54;98990.63;5005743;28;20034;-58
2022/04/28 08:37:21;;;;;;;45.47;5.40;;;;;;;29.63;26.19;98985.75;5003938;28;20046;-57
2022/04/28 08:39:46;;;;;;;57.78;6.72;;;;;;;29.36;26.12;98984.09;5003874;28;20076;-57
2022/04/28 08:42:13;;;;;;;54.47;5.93;;;;;;;29.98;24.88;98989.28;5004467;28;20048;-58
2022/04/28 08:44:40;;;;;;;46.90;5.63;;;;;;;29.25;26.01;98993.28;5005340;28;20038;-57
2022/04/28 08:47:05;;;;;;;44.38;5.80;;;;;;;28.86;26.27;98984.72;5005872;28;20048;-57
2022/04/28 08:49:32;;;;;;;54.30;6.40;;;;;;;30.84;25.66;98987.22;5005261;28;20034;-57
2022/04/28 08:51:59;;;;;;;56.25;6.35;;;;;;;29.70;24.23;98985.94;5004525;28;20038;-56
2022/04/28 08:54:27;;;;;;;51.83;6.20;;;;;;;30.04;24.73;98983.25;5003010;28;20130;-58
2022/04/28 08:56:54;;;;;;;54.33;6.15;;;;;;;28.67;26.32;98983.06;5006269;28;20069;-57
2022/04/28 08:59:20;;;;;;;49.33;5.95;;;;;;;31.18;26.98;98983.53;5002365;28;20035;-58
2022/04/28 09:01:46;;;;;;;49.88;6.38;;;;;;;31.55;23.35;98979.44;5001662;28;20038;-58
2022/04/28 09:04:11;;;;;;;55.30;6.47;;;;;;;27.63;25.82;98989.63;5005646;28;20025;-57
2022/04/28 09:06:44;;;;;;;53.28;5.95;;;;;;;31.29;24.65;98981.31;5002667;28;20505;-57
2022/04/28 09:09:15;;;;;;;49.17;5.72;;;;;;;30.54;25.70;98979.66;5005892;28;20026;-57
2022/04/28 09:11:42;;;;;;;51.72;6.20;;;;;;;28.06;25.88;98988.16;5005247;28;20045;-58
2022/04/28 09:14:20;;;;;;;42.17;5.78;;;;;;;26.53;26.93;98985.56;5004283;28;20029;-57
2022/04/28 09:16:59;;;;;;;52.88;6.10;;;;;;;29.25;24.02;98985.22;5003179;28;20042;-57
2022/04/28 09:19:28;;;;;;;56.22;6.03;;;;;;;27.94;25.65;98994.72;5003418;28;20026;-56
2022/04/28 09:22:03;;;;;;;43.38;5.47;;;;;;;29.29;25.01;98986.56;5005760;28;20033;-57
2022/04/28 09:24:28;;;;;;;63.45;6.63;;;;;;;30.21;22.33;98983.28;5003451;28;20084;-56
2022/04/28 09:26:55;;;;;;;60.00;6.75;;;;;;;30.77;23.31;98983.53;5003010;28;20514;-57
2022/04/28 09:29:23;;;;;;;59.88;6.82;;;;;;;29.57;23.94;98981.00;5003563;28;20018;-57
2022/04/28 09:31:51;;;;;;;65.90;6.65;;;;;;;27.70;25.43;98977.31;5003482;28;20874;-57
2022/04/28 09:34:21;;;;;;;56.00;6.45;;;;;;;30.04;22.67;98972.50;5003569;28;20477;-57
2022/04/28 09:36:48;;;;;;;62.22;6.50;;;;;;;28.95;23.24;98970.34;5003385;28;20040;-57
2022/04/28 09:42:29;;;;;;;52.40;5.95;;;;;;;25.85;27.18;98972.91;5001408;28;20924;-57
2022/04/28 09:44:56;;;;;;;80.90;7.85;;;;;;;23.89;26.56;98967.16;5002508;28;20113;-57
2022/04/28 09:47:22;;;;;;;57.03;6.03;;;;;;;23.05;26.71;98972.84;5003770;28;20046;-56
2022/04/28 09:49:52;;;;;;;50.85;5.72;;;;;;;24.27;27.27;98971.19;5002729;28;20037;-56
2022/04/28 09:52:24;;;;;;;51.70;6.20;;;;;;;22.20;28.87;98975.59;5003894;28;20044;-56
2022/04/28 09:54:57;;;;;;;91.00;8.05;;;;;;;22.03;31.52;98968.88;5005922;28;20037;-57
2022/04/28 09:57:23;;;;;;;44.83;5.95;;;;;;;22.94;30.64;98979.91;5003278;28;20034;-56
2022/04/28 09:59:56;;;;;;;59.38;6.30;;;;;;;21.95;33.94;98968.59;5001373;28;20120;-57
2022/04/28 10:02:24;;;;;;;56.55;5.88;;;;;;;22.67;33.82;98973.91;5003007;28;20591;-57
2022/04/28 10:04:51;;;;;;;80.00;7.80;;;;;;;22.88;31.17;98971.44;5002387;28;20045;-57
2022/04/28 10:07:16;;;;;;;56.78;5.97;;;;;;;21.40;32.99;98975.16;5004232;28;20169;-57
2022/04/28 10:09:47;;;;;;;53.80;6.35;;;;;;;23.27;30.59;98972.03;5003147;28;20030;-57
2022/04/28 10:12:15;;;;;;;63.13;6.53;;;;;;;25.00;28.33;98964.22;5003940;28;20176;-57
2022/04/28 10:14:41;;;;;;;61.95;5.85;;;;;;;22.16;34.63;98973.28;5001580;28;20032;-55
2022/04/28 10:17:18;;;;;;;59.92;6.03;;;;;;;21.05;32.63;98983.75;5002184;28;20495;-57
2022/04/28 10:19:50;;;;;;;69.35;6.50;;;;;;;22.33;35.20;98968.47;5003257;28;20028;-57
2022/04/28 10:22:20;;;;;;;65.05;6.32;;;;;;;22.04;36.58;98965.28;5003897;28;20052;-57
2022/04/28 10:33:10;;;;;;;62.80;5.75;;;;;;;21.65;32.38;98969.84;5003958;28;20068;-58
2022/04/28 10:35:50;;;;;;;65.07;5.97;;;;;;;21.73;31.43;98978.09;5001916;28;20038;-57
2022/04/28 10:38:21;;;;;;;70.63;6.50;;;;;;;22.85;33.05;98981.47;5002185;28;20028;-58
2022/04/28 10:41:03;;;;;;;67.03;6.53;;;;;;;22.25;31.62;98972.63;5005291;28;20038;-59
2022/04/28 10:43:32;;;;;;;65.03;6.32;;;;;;;25.35;30.97;98972.88;5001694;28;20036;-56
2022/04/28 10:46:24;;;;;;;61.30;6.05;;;;;;;26.01;27.89;98979.56;5001810;28;20460;-58
2022/04/28 10:48:54;;;;;;;74.07;6.65;;;;;;;26.23;29.10;98962.44;4994388;28;20054;-57
2022/04/28 10:51:22;;;;;;;64.50;6.22;;;;;;;24.89;27.74;98974.13;4998033;28;20416;-56
2022/04/28 10:54:09;;;;;;;62.47;6.35;;;;;;;23.84;28.71;98966.72;5001078;28;20058;-57
2022/04/28 10:56:53;;;;;;;64.85;6.82;;;;;;;22.53;28.82;98958.13;5001421;28;20056;-57
2022/04/28 10:59:25;;;;;;;72.88;6.57;;;;;;;24.84;28.50;98962.97;5001404;28;20103;-56
2022/04/28 11:01:50;;;;;;;59.55;5.95;;;;;;;24.89;28.61;98958.94;5001781;28;20046;-56
2022/04/28 11:04:21;;;;;;;63.25;6.03;;;;;;;24.20;28.62;98962.00;5002322;28;20515;-56
2022/04/28 11:06:51;;;;;;;58.20;5.93;;;;;;;26.69;25.23;98953.75;5002436;28;20030;-56
2022/04/28 11:09:35;;;;;;;60.70;6.45;;;;;;;24.29;27.63;98961.25;5005879;28;20034;-56
2022/04/28 11:12:11;;;;;;;65.25;6.18;;;;;;;24.62;27.22;98954.13;5000610;28;20088;-56
2022/04/28 11:14:45;;;;;;;73.28;6.57;;;;;;;24.52;27.04;98961.16;5001246;28;20263;-57
2022/04/28 11:17:11;;;;;;;62.90;5.90;;;;;;;24.12;28.44;98956.47;5000150;28;20046;-56
2022/04/28 11:19:36;;;;;;;78.82;6.95;;;;;;;23.59;29.35;98960.63;5001167;28;20044;-58
2022/04/28 11:22:02;;;;;;;63.97;6.28;;;;;;;23.84;27.55;98954.22;5001712;28;20037;-56
2022/04/28 11:24:28;;;;;;;57.60;6.05;;;;;;;22.07;30.71;98951.75;5005257;28;20058;-57
2022/04/28 11:26:55;;;;;;;64.03;6.38;;;;;;;23.43;28.74;98957.50;5000276;28;20057;-57
2022/04/28 11:29:22;;;;;;;55.30;5.63;;;;;;;23.65;30.13;98959.28;5000243;28;20036;-57
2022/04/28 11:31:49;;;;;;;57.38;5.85;;;;;;;23.51;29.20;98954.22;5000184;28;20049;-57
2022/04/28 11:34:15;;;;;;;53.75;5.75;;;;;;;20.76;32.77;98954.75;5000836;28;20052;-57
2022/04/28 11:36:41;;;;;;;71.60;6.95;;;;;;;20.75;32.53;98966.31;5000117;28;20088;-56
2022/04/28 11:39:08;;;;;;;57.40;5.65;;;;;;;22.08;32.16;98956.09;5002002;28;20032;-57
2022/04/28 11:41:40;;;;;;;58.40;6.20;;;;;;;22.33;30.86;98956.97;5002630;28;20037;-56
2022/04/28 11:44:16;;;;;;;60.17;5.50;;;;;;;22.45;36.80;98947.25;5001894;28;20124;-56
2022/04/28 11:46:42;;;;;;;64.45;6.00;;;;;;;21.70;31.81;98946.44;5001745;28;20045;-58
2022/04/28 11:49:07;;;;;;;65.73;6.10;;;;;;;23.03;31.60;98944.59;5003668;28;20029;-58